sensor_id;sensor_type;location;lat;lon;timestamp;pressure;altitude;pressure_sealevel;temperature;humidity
36798;BME280;22748;8.426;99.512;2024-01-10T00:00:32;100750.75;;;29.58;65.83
36798;BME280;22748;8.426;99.512;2024-01-10T00:03:02;100760.69;;;29.57;65.41
36798;BME280;22748;8.426;99.512;2024-01-10T00:05:32;100760.28;;;29.53;65.62
36798;BME280;22748;8.426;99.512;2024-01-10T00:08:02;100762.16;;;29.53;65.48
36798;BME280;22748;8.426;99.512;2024-01-10T00:10:36;100765.66;;;29.53;65.91
36798;BME280;22748;8.426;99.512;2024-01-10T00:13:12;100770.25;;;29.53;65.48
36798;BME280;22748;8.426;99.512;2024-01-10T00:15:42;100767.53;;;29.53;65.48
36798;BME280;22748;8.426;99.512;2024-01-10T00:18:12;100771.06;;;29.53;65.70
36798;BME280;22748;8.426;99.512;2024-01-10T00:20:42;100778.94;;;29.55;65.95
36798;BME280;22748;8.426;99.512;2024-01-10T00:23:12;100773.75;;;29.53;65.80
36798;BME280;22748;8.426;99.512;2024-01-10T00:25:41;100783.06;;;29.51;66.42
36798;BME280;22748;8.426;99.512;2024-01-10T00:28:17;100783.06;;;29.51;66.57
36798;BME280;22748;8.426;99.512;2024-01-10T00:30:47;100790.91;;;29.52;66.68
36798;BME280;22748;8.426;99.512;2024-01-10T00:33:16;100779.53;;;29.50;66.22
36798;BME280;22748;8.426;99.512;2024-01-10T00:35:46;100781.41;;;29.50;66.41
36798;BME280;22748;8.426;99.512;2024-01-10T00:38:16;100792.78;;;29.52;66.93
36798;BME280;22748;8.426;99.512;2024-01-10T00:40:45;100791.16;;;29.51;66.80
36798;BME280;22748;8.426;99.512;2024-01-10T00:43:21;100796.53;;;29.51;66.63
36798;BME280;22748;8.426;99.512;2024-01-10T00:45:51;100801.47;;;29.54;67.04
36798;BME280;22748;8.426;99.512;2024-01-10T00:48:20;100800.47;;;29.55;67.11
36798;BME280;22748;8.426;99.512;2024-01-10T00:50:49;100804.78;;;29.56;66.89
36798;BME280;22748;8.426;99.512;2024-01-10T00:53:19;100808.09;;;29.58;67.03
36798;BME280;22748;8.426;99.512;2024-01-10T00:55:49;100819.88;;;29.57;66.84
36798;BME280;22748;8.426;99.512;2024-01-10T00:58:20;100819.69;;;29.59;66.96
36798;BME280;22748;8.426;99.512;2024-01-10T01:00:50;100825.69;;;29.61;66.86
36798;BME280;22748;8.426;99.512;2024-01-10T01:03:19;100825.47;;;29.62;67.30
36798;BME280;22748;8.426;99.512;2024-01-10T01:05:49;100826.09;;;29.64;67.04
36798;BME280;22748;8.426;99.512;2024-01-10T01:08:19;100826.94;;;29.65;67.41
36798;BME280;22748;8.426;99.512;2024-01-10T01:10:49;100825.06;;;29.65;67.04
36798;BME280;22748;8.426;99.512;2024-01-10T01:13:25;100828.38;;;29.67;67.12
36798;BME280;22748;8.426;99.512;2024-01-10T01:15:55;100825.31;;;29.70;67.35
36798;BME280;22748;8.426;99.512;2024-01-10T01:18:25;100830.25;;;29.73;67.58
36798;BME280;22748;8.426;99.512;2024-01-10T01:20:54;100831.91;;;29.74;67.39
36798;BME280;22748;8.426;99.512;2024-01-10T01:23:24;100843.91;;;29.79;67.44
36798;BME280;22748;8.426;99.512;2024-01-10T01:25:54;100839.13;;;29.81;67.25
36798;BME280;22748;8.426;99.512;2024-01-10T01:28:29;100843.50;;;29.82;66.99
36798;BME280;22748;8.426;99.512;2024-01-10T01:30:58;100853.00;;;29.84;67.10
36798;BME280;22748;8.426;99.512;2024-01-10T01:33:28;100843.69;;;29.67;67.12
36798;BME280;22748;8.426;99.512;2024-01-10T01:35:58;100848.66;;;29.77;67.36
36798;BME280;22748;8.426;99.512;2024-01-10T01:38:28;100853.22;;;29.83;66.76
36798;BME280;22748;8.426;99.512;2024-01-10T01:40:57;100854.25;;;29.82;67.11
36798;BME280;22748;8.426;99.512;2024-01-10T01:43:29;100859.66;;;29.82;66.67
36798;BME280;22748;8.426;99.512;2024-01-10T01:45:59;100862.53;;;29.87;66.70
36798;BME280;22748;8.426;99.512;2024-01-10T01:48:29;100861.25;;;29.96;66.55
36798;BME280;22748;8.426;99.512;2024-01-10T01:51:02;100861.69;;;30.00;66.34
36798;BME280;22748;8.426;99.512;2024-01-10T01:53:34;100855.44;;;30.06;66.17
36798;BME280;22748;8.426;99.512;2024-01-10T01:56:07;100866.59;;;30.09;66.12
36798;BME280;22748;8.426;99.512;2024-01-10T01:58:42;100861.69;;;30.00;66.30
36798;BME280;22748;8.426;99.512;2024-01-10T02:01:12;100867.03;;;30.06;66.02
36798;BME280;22748;8.426;99.512;2024-01-10T02:03:42;100873.88;;;30.09;65.70
36798;BME280;22748;8.426;99.512;2024-01-10T02:06:12;100866.00;;;30.01;65.95
36798;BME280;22748;8.426;99.512;2024-01-10T02:08:42;100874.50;;;30.04;65.68
36798;BME280;22748;8.426;99.512;2024-01-10T02:11:12;100869.91;;;30.11;65.23
36798;BME280;22748;8.426;99.512;2024-01-10T02:13:47;100874.88;;;30.21;65.10
36798;BME280;22748;8.426;99.512;2024-01-10T02:16:16;100874.44;;;30.24;64.84
36798;BME280;22748;8.426;99.512;2024-01-10T02:18:46;100879.00;;;30.24;64.58
36798;BME280;22748;8.426;99.512;2024-01-10T02:21:15;100872.41;;;30.13;65.17
36798;BME280;22748;8.426;99.512;2024-01-10T02:23:45;100868.69;;;30.14;65.21
36798;BME280;22748;8.426;99.512;2024-01-10T02:26:20;100874.88;;;30.28;65.00
36798;BME280;22748;8.426;99.512;2024-01-10T02:28:49;100868.66;;;30.34;64.37
36798;BME280;22748;8.426;99.512;2024-01-10T02:31:20;100872.38;;;30.33;64.53
36798;BME280;22748;8.426;99.512;2024-01-10T02:33:51;100870.69;;;30.39;64.68
36798;BME280;22748;8.426;99.512;2024-01-10T02:36:20;100868.66;;;30.34;64.92
36798;BME280;22748;8.426;99.512;2024-01-10T02:38:50;100875.03;;;30.40;64.43
36798;BME280;22748;8.426;99.512;2024-01-10T02:41:26;100874.59;;;30.49;64.49
36798;BME280;22748;8.426;99.512;2024-01-10T02:43:56;100879.09;;;30.62;63.36
36798;BME280;22748;8.426;99.512;2024-01-10T02:46:30;100866.53;;;30.43;63.85
36798;BME280;22748;8.426;99.512;2024-01-10T02:48:59;100874.00;;;30.41;63.96
36798;BME280;22748;8.426;99.512;2024-01-10T02:51:32;100869.59;;;30.60;64.08
36798;BME280;22748;8.426;99.512;2024-01-10T02:54:01;100869.59;;;30.60;63.39
36798;BME280;22748;8.426;99.512;2024-01-10T02:56:37;100859.38;;;30.62;63.51
36798;BME280;22748;8.426;99.512;2024-01-10T02:59:06;100856.81;;;30.80;63.28
36798;BME280;22748;8.426;99.512;2024-01-10T03:01:35;100857.97;;;30.98;62.72
36798;BME280;22748;8.426;99.512;2024-01-10T03:04:05;100862.75;;;30.95;62.53
36798;BME280;22748;8.426;99.512;2024-01-10T03:06:35;100854.16;;;31.05;62.15
36798;BME280;22748;8.426;99.512;2024-01-10T03:09:05;100861.19;;;31.13;61.78
36798;BME280;22748;8.426;99.512;2024-01-10T03:11:40;100853.25;;;31.18;61.89
36798;BME280;22748;8.426;99.512;2024-01-10T03:14:10;100860.13;;;31.14;61.86
36798;BME280;22748;8.426;99.512;2024-01-10T03:16:40;100857.34;;;31.27;61.63
36798;BME280;22748;8.426;99.512;2024-01-10T03:19:10;100854.34;;;31.35;61.57
36798;BME280;22748;8.426;99.512;2024-01-10T03:21:40;100849.78;;;31.43;60.97
36798;BME280;22748;8.426;99.512;2024-01-10T03:24:09;100851.00;;;31.47;61.31
36798;BME280;22748;8.426;99.512;2024-01-10T03:26:45;100846.41;;;31.47;60.85
36798;BME280;22748;8.426;99.512;2024-01-10T03:29:14;100842.22;;;31.51;60.61
36798;BME280;22748;8.426;99.512;2024-01-10T03:31:44;100842.84;;;31.53;60.67
36798;BME280;22748;8.426;99.512;2024-01-10T03:34:14;100840.13;;;31.53;60.74
36798;BME280;22748;8.426;99.512;2024-01-10T03:36:44;100838.88;;;31.56;60.92
36798;BME280;22748;8.426;99.512;2024-01-10T03:39:14;100842.16;;;31.58;60.49
36798;BME280;22748;8.426;99.512;2024-01-10T03:41:50;100838.41;;;31.59;60.01
36798;BME280;22748;8.426;99.512;2024-01-10T03:44:20;100829.03;;;31.62;59.80
36798;BME280;22748;8.426;99.512;2024-01-10T03:46:49;100832.66;;;31.55;59.22
36798;BME280;22748;8.426;99.512;2024-01-10T03:49:18;100827.59;;;31.59;59.61
36798;BME280;22748;8.426;99.512;2024-01-10T03:51:48;100825.09;;;31.64;59.98
36798;BME280;22748;8.426;99.512;2024-01-10T03:54:17;100816.53;;;31.67;59.17
36798;BME280;22748;8.426;99.512;2024-01-10T03:56:53;100823.81;;;31.67;58.94
36798;BME280;22748;8.426;99.512;2024-01-10T03:59:23;100821.84;;;31.74;57.84
36798;BME280;22748;8.426;99.512;2024-01-10T04:01:53;100820.28;;;31.85;57.90
36798;BME280;22748;8.426;99.512;2024-01-10T04:04:22;100817.28;;;31.93;58.08
36798;BME280;22748;8.426;99.512;2024-01-10T04:06:52;100818.31;;;31.92;57.11
36798;BME280;22748;8.426;99.512;2024-01-10T04:09:22;100811.88;;;31.93;57.45
36798;BME280;22748;8.426;99.512;2024-01-10T04:11:57;100817.25;;;32.00;56.94
36798;BME280;22748;8.426;99.512;2024-01-10T04:14:26;100804.69;;;32.05;56.41
36798;BME280;22748;8.426;99.512;2024-01-10T04:16:56;100805.88;;;32.09;56.02
36798;BME280;22748;8.426;99.512;2024-01-10T04:19:26;100797.78;;;32.09;55.65
36798;BME280;22748;8.426;99.512;2024-01-10T04:21:55;100799.44;;;32.10;55.02
36798;BME280;22748;8.426;99.512;2024-01-10T04:24:25;100799.38;;;31.98;55.44
36798;BME280;22748;8.426;99.512;2024-01-10T04:26:56;100792.97;;;32.11;55.50
36798;BME280;22748;8.426;99.512;2024-01-10T04:29:26;100792.84;;;32.06;55.56
36798;BME280;22748;8.426;99.512;2024-01-10T04:31:56;100785.03;;;32.16;54.84
36798;BME280;22748;8.426;99.512;2024-01-10T04:34:25;100783.66;;;32.26;54.50
36798;BME280;22748;8.426;99.512;2024-01-10T04:36:55;100786.09;;;31.97;55.31
36798;BME280;22748;8.426;99.512;2024-01-10T04:39:24;100784.97;;;32.05;55.11
36798;BME280;22748;8.426;99.512;2024-01-10T04:41:55;100778.09;;;32.21;54.79
36798;BME280;22748;8.426;99.512;2024-01-10T04:44:25;100774.50;;;32.27;54.95
36798;BME280;22748;8.426;99.512;2024-01-10T04:46:54;100774.06;;;32.30;54.56
36798;BME280;22748;8.426;99.512;2024-01-10T04:49:24;100769.47;;;32.30;54.20
36798;BME280;22748;8.426;99.512;2024-01-10T04:51:53;100763.97;;;32.37;54.03
36798;BME280;22748;8.426;99.512;2024-01-10T04:54:27;100762.78;;;32.33;54.92
36798;BME280;22748;8.426;99.512;2024-01-10T04:56:58;100753.63;;;32.34;54.39
36798;BME280;22748;8.426;99.512;2024-01-10T04:59:28;100749.03;;;32.34;54.52
36798;BME280;22748;8.426;99.512;2024-01-10T05:01:57;100745.84;;;32.37;54.67
36798;BME280;22748;8.426;99.512;2024-01-10T05:04:27;100748.34;;;32.39;54.71
36798;BME280;22748;8.426;99.512;2024-01-10T05:06:57;100748.34;;;32.39;54.71
36798;BME280;22748;8.426;99.512;2024-01-10T05:09:27;100743.75;;;32.39;55.03
36798;BME280;22748;8.426;99.512;2024-01-10T05:12:02;100733.75;;;32.40;55.20
36798;BME280;22748;8.426;99.512;2024-01-10T05:14:32;100731.06;;;32.40;55.47
36798;BME280;22748;8.426;99.512;2024-01-10T05:17:01;100728.69;;;32.32;55.58
36798;BME280;22748;8.426;99.512;2024-01-10T05:19:30;100735.75;;;32.33;55.27
36798;BME280;22748;8.426;99.512;2024-01-10T05:22:00;100726.94;;;32.37;55.03
36798;BME280;22748;8.426;99.512;2024-01-10T05:24:31;100725.66;;;32.40;55.09
36798;BME280;22748;8.426;99.512;2024-01-10T05:27:05;100724.84;;;32.39;55.02
36798;BME280;22748;8.426;99.512;2024-01-10T05:29:34;100717.31;;;32.42;55.00
36798;BME280;22748;8.426;99.512;2024-01-10T05:32:05;100711.69;;;32.43;54.87
36798;BME280;22748;8.426;99.512;2024-01-10T05:34:34;100713.91;;;32.46;54.79
36798;BME280;22748;8.426;99.512;2024-01-10T05:37:04;100716.38;;;32.36;55.57
36798;BME280;22748;8.426;99.512;2024-01-10T05:39:34;100715.88;;;32.27;55.79
36798;BME280;22748;8.426;99.512;2024-01-10T05:42:11;100703.50;;;32.20;55.89
36798;BME280;22748;8.426;99.512;2024-01-10T05:44:41;100701.31;;;31.98;56.32
36798;BME280;22748;8.426;99.512;2024-01-10T05:47:11;100703.94;;;31.86;56.58
36798;BME280;22748;8.426;99.512;2024-01-10T05:49:40;100699.47;;;31.92;56.51
36798;BME280;22748;8.426;99.512;2024-01-10T05:52:10;100692.41;;;32.09;55.90
36798;BME280;22748;8.426;99.512;2024-01-10T05:54:40;100694.34;;;32.21;55.10
36798;BME280;22748;8.426;99.512;2024-01-10T05:57:16;100682.81;;;32.13;55.67
36798;BME280;22748;8.426;99.512;2024-01-10T05:59:45;100670.59;;;32.23;55.96
36798;BME280;22748;8.426;99.512;2024-01-10T06:02:15;100666.16;;;32.16;56.04
36798;BME280;22748;8.426;99.512;2024-01-10T06:04:45;100663.56;;;32.22;55.30
36798;BME280;22748;8.426;99.512;2024-01-10T06:07:18;100662.69;;;31.97;56.42
36798;BME280;22748;8.426;99.512;2024-01-10T06:09:48;100644.53;;;32.16;55.72
36798;BME280;22748;8.426;99.512;2024-01-10T06:12:24;100643.97;;;32.26;55.38
36798;BME280;22748;8.426;99.512;2024-01-10T06:14:54;100641.94;;;32.22;55.50
36798;BME280;22748;8.426;99.512;2024-01-10T06:17:24;100624.06;;;32.21;55.28
36798;BME280;22748;8.426;99.512;2024-01-10T06:19:54;100627.34;;;31.99;56.05
36798;BME280;22748;8.426;99.512;2024-01-10T06:22:23;100628.22;;;31.93;56.00
36798;BME280;22748;8.426;99.512;2024-01-10T06:24:54;100626.13;;;31.95;55.86
36798;BME280;22748;8.426;99.512;2024-01-10T06:27:29;100623.91;;;31.73;56.45
36798;BME280;22748;8.426;99.512;2024-01-10T06:29:59;100623.44;;;31.76;56.63
36798;BME280;22748;8.426;99.512;2024-01-10T06:32:28;100611.94;;;32.00;55.84
36798;BME280;22748;8.426;99.512;2024-01-10T06:34:59;100606.13;;;32.14;55.45
36798;BME280;22748;8.426;99.512;2024-01-10T06:37:29;100603.41;;;32.14;55.70
36798;BME280;22748;8.426;99.512;2024-01-10T06:39:59;100603.63;;;32.01;55.92
36798;BME280;22748;8.426;99.512;2024-01-10T06:42:32;100593.78;;;32.18;55.54
36798;BME280;22748;8.426;99.512;2024-01-10T06:45:02;100585.22;;;32.33;54.92
36798;BME280;22748;8.426;99.512;2024-01-10T06:47:34;100582.75;;;32.44;54.67
36798;BME280;22748;8.426;99.512;2024-01-10T06:50:05;100576.19;;;32.28;54.96
36798;BME280;22748;8.426;99.512;2024-01-10T06:52:35;100578.25;;;32.02;55.47
36798;BME280;22748;8.426;99.512;2024-01-10T06:55:07;100572.19;;;32.18;55.40
36798;BME280;22748;8.426;99.512;2024-01-10T06:57:46;100571.47;;;32.35;54.67
36798;BME280;22748;8.426;99.512;2024-01-10T07:00:19;100563.38;;;32.23;54.95
36798;BME280;22748;8.426;99.512;2024-01-10T07:02:49;100561.16;;;32.32;55.05
36798;BME280;22748;8.426;99.512;2024-01-10T07:05:20;100560.09;;;32.45;54.63
36798;BME280;22748;8.426;99.512;2024-01-10T07:07:50;100557.03;;;32.53;54.27
36798;BME280;22748;8.426;99.512;2024-01-10T07:10:20;100549.06;;;32.58;54.36
36798;BME280;22748;8.426;99.512;2024-01-10T07:12:58;100551.63;;;32.53;54.40
36798;BME280;22748;8.426;99.512;2024-01-10T07:15:31;100546.59;;;32.56;54.37
36798;BME280;22748;8.426;99.512;2024-01-10T07:18:00;100539.97;;;32.29;55.33
36798;BME280;22748;8.426;99.512;2024-01-10T07:20:30;100528.34;;;32.28;55.47
36798;BME280;22748;8.426;99.512;2024-01-10T07:22:59;100532.59;;;32.36;55.42
36798;BME280;22748;8.426;99.512;2024-01-10T07:25:29;100524.50;;;32.36;54.65
36798;BME280;22748;8.426;99.512;2024-01-10T07:28:05;100516.13;;;32.37;54.05
36798;BME280;22748;8.426;99.512;2024-01-10T07:30:34;100519.66;;;32.50;54.18
36798;BME280;22748;8.426;99.512;2024-01-10T07:33:04;100509.66;;;32.03;55.28
36798;BME280;22748;8.426;99.512;2024-01-10T07:35:34;100505.44;;;32.31;54.89
36798;BME280;22748;8.426;99.512;2024-01-10T07:38:05;100509.06;;;32.48;54.49
36798;BME280;22748;8.426;99.512;2024-01-10T07:40:35;100508.16;;;32.54;54.32
36798;BME280;22748;8.426;99.512;2024-01-10T07:43:11;100501.53;;;32.50;53.47
36798;BME280;22748;8.426;99.512;2024-01-10T07:45:40;100504.16;;;32.57;53.62
36798;BME280;22748;8.426;99.512;2024-01-10T07:48:10;100505.66;;;32.41;54.54
36798;BME280;22748;8.426;99.512;2024-01-10T07:50:40;100499.44;;;32.17;55.00
36798;BME280;22748;8.426;99.512;2024-01-10T07:53:09;100495.09;;;32.28;55.35
36798;BME280;22748;8.426;99.512;2024-01-10T07:55:40;100499.22;;;32.30;54.97
36798;BME280;22748;8.426;99.512;2024-01-10T07:58:11;100491.91;;;32.31;54.38
36798;BME280;22748;8.426;99.512;2024-01-10T08:00:41;100494.38;;;32.44;54.80
36798;BME280;22748;8.426;99.512;2024-01-10T08:03:10;100503.06;;;32.46;54.18
36798;BME280;22748;8.426;99.512;2024-01-10T08:05:40;100488.97;;;32.44;54.46
36798;BME280;22748;8.426;99.512;2024-01-10T08:08:09;100484.50;;;32.38;55.61
36798;BME280;22748;8.426;99.512;2024-01-10T08:10:40;100487.66;;;32.47;55.62
36798;BME280;22748;8.426;99.512;2024-01-10T08:13:16;100488.41;;;32.54;56.24
36798;BME280;22748;8.426;99.512;2024-01-10T08:15:46;100487.22;;;32.62;55.94
36798;BME280;22748;8.426;99.512;2024-01-10T08:18:16;100482.25;;;32.70;55.75
36798;BME280;22748;8.426;99.512;2024-01-10T08:20:45;100471.81;;;32.74;55.96
36798;BME280;22748;8.426;99.512;2024-01-10T08:23:15;100468.88;;;32.64;56.25
36798;BME280;22748;8.426;99.512;2024-01-10T08:25:45;100470.53;;;32.65;56.72
36798;BME280;22748;8.426;99.512;2024-01-10T08:28:21;100466.88;;;32.71;56.47
36798;BME280;22748;8.426;99.512;2024-01-10T08:30:50;100471.88;;;32.79;56.11
36798;BME280;22748;8.426;99.512;2024-01-10T08:33:20;100471.66;;;32.81;56.07
36798;BME280;22748;8.426;99.512;2024-01-10T08:35:50;100473.44;;;32.75;56.18
36798;BME280;22748;8.426;99.512;2024-01-10T08:38:20;100473.78;;;32.78;55.92
36798;BME280;22748;8.426;99.512;2024-01-10T08:40:51;100476.97;;;32.75;56.03
36798;BME280;22748;8.426;99.512;2024-01-10T08:43:26;100476.13;;;32.75;55.96
36798;BME280;22748;8.426;99.512;2024-01-10T08:45:55;100470.84;;;32.68;55.97
36798;BME280;22748;8.426;99.512;2024-01-10T08:48:25;100475.00;;;32.71;55.92
36798;BME280;22748;8.426;99.512;2024-01-10T08:50:54;100475.69;;;32.66;56.20
36798;BME280;22748;8.426;99.512;2024-01-10T08:53:24;100476.78;;;32.53;56.23
36798;BME280;22748;8.426;99.512;2024-01-10T08:55:54;100482.66;;;32.38;56.60
36798;BME280;22748;8.426;99.512;2024-01-10T08:58:29;100480.28;;;32.42;56.39
36798;BME280;22748;8.426;99.512;2024-01-10T09:00:58;100476.53;;;32.43;56.08
36798;BME280;22748;8.426;99.512;2024-01-10T09:03:27;100483.09;;;32.47;56.18
36798;BME280;22748;8.426;99.512;2024-01-10T09:05:57;100483.13;;;32.24;56.37
36798;BME280;22748;8.426;99.512;2024-01-10T09:08:27;100485.00;;;32.00;57.55
36798;BME280;22748;8.426;99.512;2024-01-10T09:10:56;100494.47;;;31.90;57.56
36798;BME280;22748;8.426;99.512;2024-01-10T09:13:28;100487.63;;;31.88;57.47
36798;BME280;22748;8.426;99.512;2024-01-10T09:15:57;100491.78;;;31.90;57.41
36798;BME280;22748;8.426;99.512;2024-01-10T09:18:27;100496.78;;;31.75;57.87
36798;BME280;22748;8.426;99.512;2024-01-10T09:20:56;100490.00;;;31.84;57.97
36798;BME280;22748;8.426;99.512;2024-01-10T09:23:26;100487.53;;;31.83;58.04
36798;BME280;22748;8.426;99.512;2024-01-10T09:25:56;100496.00;;;31.86;58.18
36798;BME280;22748;8.426;99.512;2024-01-10T09:28:31;100503.50;;;31.96;57.91
36798;BME280;22748;8.426;99.512;2024-01-10T09:31:00;100504.59;;;32.07;57.87
36798;BME280;22748;8.426;99.512;2024-01-10T09:33:30;100510.47;;;32.15;57.73
36798;BME280;22748;8.426;99.512;2024-01-10T09:36:01;100511.19;;;31.99;57.42
36798;BME280;22748;8.426;99.512;2024-01-10T09:38:33;100515.13;;;31.96;57.87
36798;BME280;22748;8.426;99.512;2024-01-10T09:41:04;100514.31;;;31.96;58.19
36798;BME280;22748;8.426;99.512;2024-01-10T09:43:40;100516.47;;;31.64;58.78
36798;BME280;22748;8.426;99.512;2024-01-10T09:46:10;100525.13;;;31.54;58.76
36798;BME280;22748;8.426;99.512;2024-01-10T09:48:39;100532.13;;;31.73;58.56
36798;BME280;22748;8.426;99.512;2024-01-10T09:51:09;100525.66;;;31.74;58.51
36798;BME280;22748;8.426;99.512;2024-01-10T09:53:44;100528.41;;;31.86;57.91
36798;BME280;22748;8.426;99.512;2024-01-10T09:56:14;100530.09;;;31.99;57.85
36798;BME280;22748;8.426;99.512;2024-01-10T09:58:50;100527.03;;;32.07;58.04
36798;BME280;22748;8.426;99.512;2024-01-10T10:01:21;100525.41;;;32.06;58.13
36798;BME280;22748;8.426;99.512;2024-01-10T10:03:51;100539.13;;;32.05;58.32
36798;BME280;22748;8.426;99.512;2024-01-10T10:06:21;100537.31;;;31.87;58.84
36798;BME280;22748;8.426;99.512;2024-01-10T10:08:50;100536.09;;;32.01;58.49
36798;BME280;22748;8.426;99.512;2024-01-10T10:11:20;100540.09;;;32.10;58.29
36798;BME280;22748;8.426;99.512;2024-01-10T10:13:55;100534.44;;;32.12;58.55
36798;BME280;22748;8.426;99.512;2024-01-10T10:16:25;100545.59;;;32.15;58.56
36798;BME280;22748;8.426;99.512;2024-01-10T10:18:55;100537.88;;;32.19;58.43
36798;BME280;22748;8.426;99.512;2024-01-10T10:21:26;100531.97;;;32.22;58.41
36798;BME280;22748;8.426;99.512;2024-01-10T10:24:00;100534.47;;;32.24;58.32
36798;BME280;22748;8.426;99.512;2024-01-10T10:26:33;100527.16;;;32.24;58.78
36798;BME280;22748;8.426;99.512;2024-01-10T10:29:08;100530.69;;;32.25;58.77
36798;BME280;22748;8.426;99.512;2024-01-10T10:31:37;100529.50;;;32.21;58.57
36798;BME280;22748;8.426;99.512;2024-01-10T10:34:07;100535.28;;;32.12;58.55
36798;BME280;22748;8.426;99.512;2024-01-10T10:36:40;100530.47;;;32.14;58.92
36798;BME280;22748;8.426;99.512;2024-01-10T10:39:16;100542.69;;;32.17;58.80
36798;BME280;22748;8.426;99.512;2024-01-10T10:41:48;100539.03;;;32.11;58.97
36798;BME280;22748;8.426;99.512;2024-01-10T10:44:24;100537.84;;;32.07;58.86
36798;BME280;22748;8.426;99.512;2024-01-10T10:46:54;100538.09;;;32.06;58.99
36798;BME280;22748;8.426;99.512;2024-01-10T10:49:28;100543.84;;;32.09;59.13
36798;BME280;22748;8.426;99.512;2024-01-10T10:52:00;100551.00;;;32.15;59.50
36798;BME280;22748;8.426;99.512;2024-01-10T10:54:31;100558.53;;;32.13;59.13
36798;BME280;22748;8.426;99.512;2024-01-10T10:57:03;100559.59;;;32.12;58.94
36798;BME280;22748;8.426;99.512;2024-01-10T10:59:39;100564.41;;;32.10;59.10
36798;BME280;22748;8.426;99.512;2024-01-10T11:02:11;100571.91;;;32.08;59.39
36798;BME280;22748;8.426;99.512;2024-01-10T11:04:41;100578.25;;;32.02;59.35
36798;BME280;22748;8.426;99.512;2024-01-10T11:07:10;100568.81;;;31.93;59.53
36798;BME280;22748;8.426;99.512;2024-01-10T11:09:42;100575.84;;;31.94;59.63
36798;BME280;22748;8.426;99.512;2024-01-10T11:12:24;100575.75;;;32.01;59.57
36798;BME280;22748;8.426;99.512;2024-01-10T11:15:13;100574.47;;;32.03;59.56
36798;BME280;22748;8.426;99.512;2024-01-10T11:18:23;100576.13;;;32.04;59.76
36798;BME280;22748;8.426;99.512;2024-01-10T11:21:15;100578.63;;;32.06;59.67
36798;BME280;22748;8.426;99.512;2024-01-10T11:23:49;100584.84;;;32.06;59.32
36798;BME280;22748;8.426;99.512;2024-01-10T11:26:20;100593.31;;;32.10;59.61
36798;BME280;22748;8.426;99.512;2024-01-10T11:28:51;100595.03;;;32.04;59.69
36798;BME280;22748;8.426;99.512;2024-01-10T11:31:31;100587.97;;;32.03;59.84
36798;BME280;22748;8.426;99.512;2024-01-10T11:34:02;100592.94;;;32.06;60.00
36798;BME280;22748;8.426;99.512;2024-01-10T11:36:32;100599.47;;;31.98;59.95
36798;BME280;22748;8.426;99.512;2024-01-10T11:39:04;100592.97;;;31.88;60.40
36798;BME280;22748;8.426;99.512;2024-01-10T11:41:34;100608.56;;;31.86;60.92
36798;BME280;22748;8.426;99.512;2024-01-10T11:44:26;100598.63;;;31.86;60.60
36798;BME280;22748;8.426;99.512;2024-01-10T11:46:58;100602.25;;;31.92;60.56
36798;BME280;22748;8.426;99.512;2024-01-10T11:49:28;100605.56;;;31.94;60.68
36798;BME280;22748;8.426;99.512;2024-01-10T11:51:59;100607.06;;;31.90;60.87
36798;BME280;22748;8.426;99.512;2024-01-10T11:54:41;100605.44;;;31.89;60.74
36798;BME280;22748;8.426;99.512;2024-01-10T11:57:12;100610.00;;;31.88;60.83
36798;BME280;22748;8.426;99.512;2024-01-10T11:59:42;100612.47;;;31.90;61.07
36798;BME280;22748;8.426;99.512;2024-01-10T12:02:18;100625.75;;;31.91;60.96
36798;BME280;22748;8.426;99.512;2024-01-10T12:04:49;100626.94;;;31.95;60.90
36798;BME280;22748;8.426;99.512;2024-01-10T12:07:19;100631.28;;;31.96;60.99
36798;BME280;22748;8.426;99.512;2024-01-10T12:09:48;100630.25;;;31.97;60.91
36798;BME280;22748;8.426;99.512;2024-01-10T12:12:18;100640.84;;;31.99;60.74
36798;BME280;22748;8.426;99.512;2024-01-10T12:14:48;100660.56;;;32.00;60.94
36798;BME280;22748;8.426;99.512;2024-01-10T12:17:22;100660.56;;;32.00;60.74
36798;BME280;22748;8.426;99.512;2024-01-10T12:19:55;100666.47;;;31.90;60.91
36798;BME280;22748;8.426;99.512;2024-01-10T12:22:24;100670.69;;;31.86;60.85
36798;BME280;22748;8.426;99.512;2024-01-10T12:25:03;100666.81;;;31.82;60.66
36798;BME280;22748;8.426;99.512;2024-01-10T12:27:33;100667.41;;;31.84;60.69
36798;BME280;22748;8.426;99.512;2024-01-10T12:30:03;100666.34;;;31.85;60.84
36798;BME280;22748;8.426;99.512;2024-01-10T12:32:39;100672.81;;;31.84;60.72
36798;BME280;22748;8.426;99.512;2024-01-10T12:35:09;100671.16;;;31.83;60.46
36798;BME280;22748;8.426;99.512;2024-01-10T12:37:38;100683.03;;;31.82;60.48
36798;BME280;22748;8.426;99.512;2024-01-10T12:40:09;100685.56;;;31.76;60.65
36798;BME280;22748;8.426;99.512;2024-01-10T12:42:41;100685.66;;;31.70;60.81
36798;BME280;22748;8.426;99.512;2024-01-10T12:45:21;100693.59;;;31.65;60.86
36798;BME280;22748;8.426;99.512;2024-01-10T12:47:57;100702.53;;;31.65;60.98
36798;BME280;22748;8.426;99.512;2024-01-10T12:50:27;100704.75;;;31.68;61.18
36798;BME280;22748;8.426;99.512;2024-01-10T12:52:57;100706.72;;;31.61;61.13
36798;BME280;22748;8.426;99.512;2024-01-10T12:55:27;100706.28;;;31.64;61.12
36798;BME280;22748;8.426;99.512;2024-01-10T12:57:56;100702.06;;;31.68;61.08
36798;BME280;22748;8.426;99.512;2024-01-10T13:00:28;100708.66;;;31.72;60.80
36798;BME280;22748;8.426;99.512;2024-01-10T13:03:07;100713.63;;;31.75;61.06
36798;BME280;22748;8.426;99.512;2024-01-10T13:05:37;100711.53;;;31.77;60.87
36798;BME280;22748;8.426;99.512;2024-01-10T13:08:07;100714.81;;;31.80;60.73
36798;BME280;22748;8.426;99.512;2024-01-10T13:10:41;100729.97;;;31.81;60.79